createdAt,value
2023-05-25T00:00:27.520Z,21.90
2023-05-25T00:04:50.777Z,19.60
2023-05-25T00:08:55.551Z,14.60
2023-05-25T00:12:58.246Z,15.90
2023-05-25T00:17:04.200Z,18.10
2023-05-25T00:21:07.329Z,16.00
2023-05-25T00:25:11.352Z,15.40
2023-05-25T00:29:15.025Z,24.60
2023-05-25T00:33:24.889Z,17.00
2023-05-25T00:37:28.164Z,21.40
2023-05-25T00:41:33.361Z,13.90
2023-05-25T00:45:41.390Z,20.30
2023-05-25T00:49:44.437Z,16.80
2023-05-25T00:53:47.215Z,16.20
2023-05-25T00:57:51.941Z,18.60
2023-05-25T01:01:55.603Z,27.10
2023-05-25T01:05:59.243Z,17.00
2023-05-25T01:10:10.184Z,14.40
2023-05-25T01:14:13.535Z,31.60
2023-05-25T01:18:17.982Z,18.00
2023-05-25T01:22:42.663Z,22.10
2023-05-25T01:27:07.811Z,16.90
2023-05-25T01:31:11.133Z,19.10
2023-05-25T01:35:24.659Z,17.10
2023-05-25T01:39:27.853Z,19.30
2023-05-25T01:43:30.974Z,19.30
2023-05-25T01:47:58.211Z,14.50
2023-05-25T01:52:31.450Z,18.20
2023-05-25T01:56:36.149Z,20.60
2023-05-25T02:00:41.065Z,18.60
2023-05-25T02:04:44.335Z,30.00
2023-05-25T02:08:47.121Z,15.10
2023-05-25T02:13:02.284Z,16.30
2023-05-25T02:17:05.137Z,11.70
2023-05-25T02:21:18.249Z,15.60
2023-05-25T02:25:21.147Z,18.30
2023-05-25T02:29:23.891Z,21.60
2023-05-25T02:33:32.414Z,17.50
2023-05-25T02:37:35.377Z,26.20
2023-05-25T02:41:38.705Z,19.90
2023-05-25T02:45:41.805Z,18.20
2023-05-25T02:49:49.610Z,16.40
2023-05-25T02:53:52.472Z,19.40
2023-05-25T02:57:55.399Z,14.30
2023-05-25T04:05:45.927Z,23.00
2023-05-25T04:09:48.928Z,16.20
2023-05-25T04:13:51.675Z,20.40
2023-05-25T04:17:55.144Z,28.70
2023-05-25T04:21:58.056Z,18.00
2023-05-25T04:26:01.598Z,18.20
2023-05-25T04:30:05.014Z,16.70
2023-05-25T04:34:09.768Z,19.00
2023-05-25T04:38:12.629Z,18.50
2023-05-25T04:42:17.087Z,15.30
2023-05-25T04:46:19.948Z,17.00
2023-05-25T04:50:23.481Z,16.60
2023-05-25T04:54:26.264Z,12.40
2023-05-25T04:58:29.595Z,15.90
2023-05-25T05:02:32.495Z,26.60
2023-05-25T05:06:36.576Z,19.00
2023-05-25T05:10:39.372Z,19.90
2023-05-25T05:14:42.364Z,19.80
2023-05-25T05:18:45.538Z,16.20
2023-05-25T05:22:49.192Z,18.60
2023-05-25T05:26:58.194Z,26.60
2023-05-25T05:31:01.892Z,20.10
2023-05-25T05:35:05.612Z,18.30
2023-05-25T05:39:08.949Z,16.80
2023-05-25T05:43:13.451Z,19.20
2023-05-25T05:47:16.250Z,18.90
2023-05-25T05:51:19.088Z,17.80
2023-05-25T05:55:23.948Z,19.10
2023-05-25T05:59:26.795Z,14.30
2023-05-25T06:03:30.076Z,20.90
2023-05-25T06:07:35.231Z,19.30
2023-05-25T06:11:40.120Z,14.50
2023-05-25T06:15:43.376Z,23.70
2023-05-25T06:19:49.910Z,16.50
2023-05-25T06:23:52.772Z,19.00
2023-05-25T06:27:55.963Z,19.10
2023-05-25T06:31:59.535Z,17.10
2023-05-25T06:36:02.445Z,14.40
2023-05-25T06:40:05.824Z,21.40
2023-05-25T06:44:09.294Z,23.50
2023-05-25T06:48:12.197Z,17.10
2023-05-25T06:52:15.115Z,12.60
2023-05-25T06:56:18.607Z,16.40
2023-05-25T07:00:21.549Z,13.50
2023-05-25T07:04:24.592Z,13.90
2023-05-25T07:08:27.340Z,17.90
2023-05-25T07:12:30.601Z,15.30
2023-05-25T07:16:34.413Z,17.40
2023-05-25T07:20:38.247Z,14.00
2023-05-25T07:24:41.121Z,12.50
2023-05-25T07:28:50.025Z,8.70
2023-05-25T07:32:52.967Z,12.60
2023-05-25T07:36:55.890Z,7.70
2023-05-25T07:40:58.827Z,9.10
2023-05-25T07:45:02.475Z,8.10
2023-05-25T07:49:06.690Z,11.70
2023-05-25T07:53:09.435Z,10.10
2023-05-25T07:57:12.221Z,10.50
2023-05-25T08:01:16.241Z,8.60
2023-05-25T08:05:18.986Z,8.20
2023-05-25T08:09:21.775Z,8.90
2023-05-25T08:30:18.217Z,9.10
2023-05-25T08:34:21.088Z,9.50
2023-05-25T08:38:26.099Z,14.80
2023-05-25T08:42:29.535Z,6.90
2023-05-25T08:46:32.702Z,7.80
2023-05-25T08:50:36.200Z,8.20
2023-05-25T08:54:40.258Z,7.40
2023-05-25T08:58:56.889Z,8.10
2023-05-25T09:03:33.444Z,5.80
2023-05-25T09:11:42.216Z,7.70
2023-05-25T09:15:46.459Z,7.80
2023-05-25T09:19:50.220Z,8.50
2023-05-25T09:23:53.357Z,9.20
2023-05-25T09:28:10.208Z,7.10
2023-05-25T09:32:28.079Z,7.90
2023-05-25T09:36:32.733Z,7.50
2023-05-25T09:40:38.052Z,6.40
2023-05-25T09:44:42.693Z,10.90
2023-05-25T09:48:45.797Z,5.80
2023-05-25T09:53:00.535Z,8.00
2023-05-25T09:57:05.237Z,12.30
2023-05-25T10:01:08.192Z,4.20
2023-05-25T10:05:11.020Z,6.40
2023-05-25T10:09:15.476Z,9.40
2023-05-25T10:13:25.112Z,7.10
2023-05-25T10:17:31.890Z,7.40
2023-05-25T10:21:38.036Z,7.20
2023-05-25T10:25:44.988Z,7.10
2023-05-25T10:29:49.778Z,5.30
2023-05-25T10:33:52.903Z,7.50
2023-05-25T10:37:56.977Z,12.60
2023-05-25T10:42:02.168Z,11.80
2023-05-25T10:46:06.713Z,8.60
2023-05-25T10:50:21.153Z,7.90
2023-05-25T10:54:28.996Z,6.20
2023-05-25T10:58:32.829Z,8.30
2023-05-25T11:02:50.558Z,7.40
2023-05-25T11:07:04.342Z,4.60
2023-05-25T11:11:07.084Z,7.90
2023-05-25T11:15:12.610Z,5.70
2023-05-25T11:19:15.531Z,7.70
2023-05-25T11:23:25.098Z,5.00
2023-05-25T11:27:30.481Z,9.70
2023-05-25T11:31:41.455Z,7.70
2023-05-25T11:35:48.954Z,5.10
2023-05-25T11:39:52.740Z,4.50
2023-05-25T11:43:57.040Z,6.20
2023-05-25T11:47:59.973Z,6.40
2023-05-25T11:52:08.816Z,11.10
2023-05-25T11:56:15.995Z,8.20
2023-05-25T12:00:43.483Z,5.50
2023-05-25T12:05:01.932Z,5.50
2023-05-25T12:09:11.926Z,5.80
2023-05-25T12:13:15.063Z,8.00
2023-05-25T12:17:21.550Z,13.00
2023-05-25T12:21:24.903Z,5.30
2023-05-25T12:25:38.584Z,5.30
2023-05-25T12:29:53.161Z,9.20
2023-05-25T12:34:10.104Z,6.00
2023-05-25T12:38:22.203Z,4.10
2023-05-25T12:42:30.704Z,8.30
2023-05-25T12:46:33.578Z,4.00
2023-05-25T12:51:12.125Z,4.70
2023-05-25T12:55:43.177Z,7.60
2023-05-25T12:59:47.002Z,4.50
2023-05-25T13:03:49.828Z,7.30
2023-05-25T13:07:54.723Z,6.40
2023-05-25T13:11:58.486Z,9.10
2023-05-25T13:16:01.486Z,7.60
2023-05-25T13:20:04.709Z,8.30
2023-05-25T13:24:07.661Z,7.90
2023-05-25T13:28:15.919Z,5.20
2023-05-25T13:32:19.295Z,5.20
2023-05-25T13:36:20.979Z,5.80
2023-05-25T13:40:24.373Z,5.30
2023-05-25T13:44:27.192Z,5.70
2023-05-25T13:48:30.468Z,5.20
2023-05-25T13:52:37.017Z,9.70
2023-05-25T14:01:21.429Z,6.20
2023-05-25T14:05:26.198Z,8.30
2023-05-25T14:09:31.100Z,6.00
2023-05-25T14:13:38.086Z,5.30
2023-05-25T14:17:41.783Z,4.50
2023-05-25T14:21:45.051Z,19.10
2023-05-25T14:25:49.973Z,3.90
2023-05-25T14:29:53.276Z,5.80
2023-05-25T14:33:56.374Z,5.50
2023-05-25T14:37:59.512Z,4.50
2023-05-25T14:42:06.182Z,4.50
2023-05-25T14:46:10.732Z,6.10
2023-05-25T14:50:13.968Z,4.80
2023-05-25T14:54:17.594Z,6.10
2023-05-25T14:58:20.902Z,6.70
2023-05-25T15:02:24.563Z,6.70
2023-05-25T15:06:27.962Z,6.60
2023-05-25T15:10:31.287Z,5.50
2023-05-25T15:14:35.367Z,7.60
2023-05-25T15:18:38.747Z,8.30
2023-05-25T15:22:42.047Z,9.40
2023-05-25T15:26:45.575Z,4.50
2023-05-25T15:30:48.967Z,8.50
2023-05-25T15:34:52.171Z,7.40
2023-05-25T15:38:56.014Z,5.80
2023-05-25T15:42:59.359Z,7.00
2023-05-25T15:47:02.604Z,8.00
2023-05-25T15:51:06.042Z,8.40
2023-05-25T15:55:09.599Z,9.10
2023-05-25T15:59:12.873Z,8.10
2023-05-25T16:03:16.456Z,5.50
2023-05-25T16:07:19.893Z,12.00
2023-05-25T16:11:24.194Z,8.10
2023-05-25T16:15:27.537Z,5.80
2023-05-25T16:19:30.791Z,6.40
2023-05-25T16:23:34.892Z,4.90
2023-05-25T16:27:38.493Z,8.10
2023-05-25T16:31:42.004Z,5.20
2023-05-25T16:35:45.744Z,5.10
2023-05-25T16:39:49.277Z,5.80
2023-05-25T16:43:52.504Z,7.00
2023-05-25T16:47:55.810Z,4.60
2023-05-25T16:51:59.363Z,6.20
2023-05-25T16:56:02.741Z,7.70
2023-05-25T17:00:06.884Z,6.60
2023-05-25T17:04:10.521Z,11.10
2023-05-25T17:08:14.025Z,5.10
2023-05-25T17:12:17.462Z,7.60
2023-05-25T17:16:21.460Z,6.10
2023-05-25T17:20:25.055Z,8.60
2023-05-25T17:24:28.399Z,3.90
2023-05-25T17:28:33.084Z,8.30
2023-05-25T17:32:38.488Z,7.50
2023-05-25T17:36:42.901Z,10.30
2023-05-25T17:40:47.593Z,7.50
2023-05-25T17:44:51.660Z,6.50
2023-05-25T17:48:55.093Z,7.90
2023-05-25T17:52:58.475Z,12.40
2023-05-25T17:57:05.184Z,10.00
2023-05-25T18:01:09.164Z,6.50
2023-05-25T18:05:12.911Z,5.90
2023-05-25T18:09:17.017Z,6.10
2023-05-25T18:13:20.315Z,8.80
2023-05-25T18:17:23.602Z,8.80
2023-05-25T18:21:27.111Z,5.80
2023-05-25T18:25:30.530Z,5.40
2023-05-25T18:29:34.050Z,6.20
2023-05-25T18:33:37.566Z,10.40
2023-05-25T18:37:41.456Z,8.60
2023-05-25T18:41:44.842Z,5.50
2023-05-25T18:45:48.327Z,11.70
2023-05-25T18:49:51.921Z,4.90
2023-05-25T18:53:55.191Z,9.60
2023-05-25T18:57:58.451Z,6.20
2023-05-25T19:02:01.890Z,8.50
2023-05-25T19:06:05.470Z,6.20
2023-05-25T19:10:09.493Z,9.70
2023-05-25T19:14:12.895Z,5.80
2023-05-25T19:18:17.151Z,4.70
2023-05-25T19:22:21.068Z,4.90
2023-05-25T19:26:24.557Z,6.00
2023-05-25T19:30:28.095Z,6.30
2023-05-25T19:34:31.951Z,7.70
2023-05-25T19:38:41.170Z,6.30
2023-05-25T19:42:45.234Z,6.80
2023-05-25T19:46:48.888Z,6.50
2023-05-25T19:50:53.104Z,10.10
2023-05-25T19:54:56.380Z,7.90
2023-05-25T19:58:59.614Z,6.80
2023-05-25T20:03:03.176Z,7.80
2023-05-25T20:07:06.858Z,16.80
2023-05-25T20:11:10.072Z,7.00
2023-05-25T20:15:13.481Z,9.50
2023-05-25T20:19:19.035Z,12.90
2023-05-25T20:23:22.240Z,13.80
2023-05-25T20:27:25.798Z,9.40
2023-05-25T20:31:29.005Z,12.50
2023-05-25T20:35:33.528Z,11.70
2023-05-25T20:39:39.952Z,12.50
2023-05-25T20:43:43.214Z,16.00
2023-05-25T20:47:46.472Z,13.80
2023-05-25T20:51:50.733Z,8.80
2023-05-25T20:55:54.135Z,8.90
2023-05-25T21:00:00.019Z,11.40
2023-05-25T21:08:06.885Z,8.30
2023-05-25T21:12:10.370Z,11.90
2023-05-25T21:16:15.420Z,8.70
2023-05-25T21:20:20.238Z,15.30
2023-05-25T21:24:24.165Z,7.30
2023-05-25T21:28:27.636Z,10.90
2023-05-25T21:32:32.488Z,10.30
2023-05-25T21:36:37.960Z,11.70
2023-05-25T21:40:42.525Z,14.10
2023-05-25T21:44:46.100Z,13.30
2023-05-25T21:48:49.595Z,10.10
2023-05-25T21:52:53.983Z,10.10
2023-05-25T21:56:57.857Z,19.20
2023-05-25T22:01:01.166Z,9.70
2023-05-25T22:05:04.916Z,12.60
2023-05-25T22:09:08.410Z,11.20
2023-05-25T22:13:12.004Z,14.30
2023-05-25T22:17:17.471Z,11.00
2023-05-25T22:21:21.094Z,10.50
2023-05-25T22:25:25.475Z,8.90
2023-05-25T22:29:28.916Z,10.20
2023-05-25T22:33:32.141Z,9.70
2023-05-25T22:37:35.762Z,12.80
2023-05-25T22:41:39.044Z,11.20
2023-05-25T22:45:42.564Z,14.10
2023-05-25T22:49:45.973Z,11.60
2023-05-25T22:53:49.683Z,12.70
2023-05-25T22:57:52.866Z,17.90
2023-05-25T23:01:56.368Z,10.50
2023-05-25T23:05:59.823Z,11.00
2023-05-25T23:10:03.367Z,11.30
2023-05-25T23:14:08.069Z,10.50
2023-05-25T23:18:15.587Z,20.30
2023-05-25T23:22:19.197Z,11.90
2023-05-25T23:26:22.455Z,12.40
2023-05-25T23:30:29.096Z,19.90
2023-05-25T23:34:42.516Z,19.80
2023-05-25T23:38:47.181Z,14.10
2023-05-25T23:42:51.651Z,15.30
2023-05-25T23:46:55.091Z,14.80
2023-05-25T23:50:58.820Z,14.60
2023-05-25T23:55:03.057Z,15.10
2023-05-25T23:59:06.594Z,22.50
